createdAt,value
2023-03-16T00:02:51.107Z,2.80
2023-03-16T00:07:53.813Z,2.71
2023-03-16T00:12:58.837Z,2.64
2023-03-16T00:18:01.542Z,2.62
2023-03-16T00:23:04.774Z,2.57
2023-03-16T00:28:07.495Z,2.51
2023-03-16T00:33:11.073Z,2.48
2023-03-16T00:38:13.785Z,2.44
2023-03-16T00:43:18.838Z,2.36
2023-03-16T00:48:24.592Z,2.30
2023-03-16T00:53:27.330Z,2.29
2023-03-16T00:58:36.096Z,2.25
2023-03-16T01:03:38.866Z,2.24
2023-03-16T01:08:42.147Z,2.30
2023-03-16T01:13:47.784Z,2.38
2023-03-16T01:18:52.594Z,2.44
2023-03-16T01:23:55.381Z,2.45
2023-03-16T01:28:58.443Z,2.38
2023-03-16T01:34:02.872Z,2.31
2023-03-16T01:39:06.933Z,2.22
2023-03-16T01:44:14.567Z,2.15
2023-03-16T01:49:36.679Z,2.06
2023-03-16T01:54:51.558Z,2.02
2023-03-16T02:00:18.635Z,1.95
2023-03-16T02:05:26.455Z,1.87
2023-03-16T02:10:30.033Z,1.80
2023-03-16T02:15:36.140Z,1.75
2023-03-16T02:20:51.306Z,1.80
2023-03-16T02:26:01.933Z,1.95
2023-03-16T02:31:06.006Z,2.02
2023-03-16T02:36:08.962Z,2.04
2023-03-16T02:41:17.448Z,2.03
2023-03-16T02:46:22.543Z,1.99
2023-03-16T02:51:25.305Z,1.93
2023-03-16T02:56:28.048Z,1.91
2023-03-16T03:01:32.639Z,1.92
2023-03-16T03:06:35.618Z,1.87
2023-03-16T03:11:38.945Z,1.79
2023-03-16T03:16:41.759Z,1.71
2023-03-16T03:21:45.081Z,1.67
2023-03-16T03:26:47.762Z,1.64
2023-03-16T03:31:50.475Z,1.60
2023-03-16T03:36:53.782Z,1.57
2023-03-16T03:41:56.485Z,1.52
2023-03-16T03:46:59.253Z,1.50
2023-03-16T03:52:06.068Z,1.51
2023-03-16T03:57:09.039Z,1.50
2023-03-16T04:02:12.452Z,1.49
2023-03-16T04:07:15.232Z,1.49
2023-03-16T04:12:17.951Z,1.53
2023-03-16T04:17:20.765Z,1.56
2023-03-16T04:22:23.495Z,1.57
2023-03-16T04:27:26.193Z,1.49
2023-03-16T04:32:28.890Z,1.40
2023-03-16T04:37:31.787Z,1.30
2023-03-16T04:42:34.509Z,1.22
2023-03-16T04:47:37.908Z,1.11
2023-03-16T04:52:41.284Z,1.03
2023-03-16T04:57:44.018Z,1.00
2023-03-16T05:02:48.106Z,0.95
2023-03-16T05:07:50.856Z,0.96
2023-03-16T05:12:53.549Z,0.95
2023-03-16T05:17:56.339Z,0.95
2023-03-16T05:22:59.045Z,1.00
2023-03-16T05:28:02.183Z,1.10
2023-03-16T05:33:05.099Z,1.27
2023-03-16T05:38:09.249Z,1.44
2023-03-16T05:43:12.043Z,1.56
2023-03-16T05:48:17.596Z,1.66
2023-03-16T05:53:20.428Z,1.69
2023-03-16T05:58:23.134Z,1.69
2023-03-16T06:03:26.217Z,1.74
2023-03-16T06:08:28.999Z,1.78
2023-03-16T06:13:31.694Z,1.87
2023-03-16T06:18:34.877Z,1.91
2023-03-16T06:23:37.597Z,2.10
2023-03-16T06:28:41.618Z,2.33
2023-03-16T06:33:44.407Z,2.50
2023-03-16T06:38:47.255Z,2.65
2023-03-16T06:43:49.962Z,2.76
2023-03-16T06:48:52.669Z,2.86
2023-03-16T06:53:55.398Z,2.94
2023-03-16T06:58:58.380Z,3.02
2023-03-16T07:04:01.939Z,3.10
2023-03-16T07:09:13.420Z,3.08
2023-03-16T07:14:17.026Z,3.18
2023-03-16T07:19:19.920Z,3.32
2023-03-16T07:24:22.654Z,3.44
2023-03-16T07:29:25.332Z,3.42
2023-03-16T07:34:28.038Z,3.37
2023-03-16T07:39:31.857Z,3.43
2023-03-16T07:44:34.545Z,3.55
2023-03-16T07:49:37.316Z,3.64
2023-03-16T07:54:41.125Z,3.70
2023-03-16T07:59:44.170Z,3.75
2023-03-16T08:04:47.149Z,3.81
2023-03-16T08:09:49.967Z,3.90
2023-03-16T08:14:54.627Z,3.89
2023-03-16T08:19:57.378Z,3.95
2023-03-16T08:25:00.864Z,4.11
2023-03-16T08:30:12.844Z,4.19
2023-03-16T08:35:16.784Z,4.24
2023-03-16T08:40:22.696Z,4.32
2023-03-16T08:45:26.060Z,4.34
2023-03-16T08:50:29.066Z,4.35
2023-03-16T08:55:32.096Z,4.34
2023-03-16T09:00:35.314Z,4.34
2023-03-16T09:05:38.361Z,4.35
2023-03-16T09:10:41.784Z,4.42
2023-03-16T09:15:44.790Z,4.52
2023-03-16T09:20:50.540Z,4.65
2023-03-16T09:25:53.730Z,4.82
2023-03-16T09:30:57.450Z,4.91
2023-03-16T09:36:00.831Z,5.00
2023-03-16T09:41:33.598Z,5.07
2023-03-16T09:46:45.616Z,5.14
2023-03-16T09:52:11.891Z,5.25
2023-03-16T09:57:39.733Z,5.34
2023-03-16T10:02:45.717Z,5.38
2023-03-16T10:08:18.742Z,5.42
2023-03-16T10:13:36.840Z,5.43
2023-03-16T10:18:53.613Z,5.50
2023-03-16T10:23:58.881Z,5.46
2023-03-16T10:29:01.629Z,5.43
2023-03-16T10:34:06.638Z,5.54
2023-03-16T10:39:14.533Z,5.70
2023-03-16T10:44:23.574Z,5.90
2023-03-16T10:49:28.800Z,5.97
2023-03-16T10:54:40.015Z,5.91
2023-03-16T10:59:49.712Z,5.81
2023-03-16T11:04:54.585Z,5.67
2023-03-16T11:09:59.810Z,5.57
2023-03-16T11:15:07.440Z,5.62
2023-03-16T11:20:32.733Z,5.78
2023-03-16T11:25:47.863Z,5.93
2023-03-16T11:31:01.506Z,6.10
2023-03-16T11:36:31.496Z,6.27
2023-03-16T11:41:56.522Z,6.36
2023-03-16T11:47:20.946Z,6.20
2023-03-16T11:52:42.962Z,6.13
2023-03-16T11:58:04.096Z,5.99
2023-03-16T12:03:46.032Z,5.89
2023-03-16T12:09:15.657Z,5.83
2023-03-16T12:14:34.027Z,5.81
2023-03-16T12:19:49.298Z,5.79
2023-03-16T12:24:52.237Z,5.73
2023-03-16T12:30:46.695Z,5.74
2023-03-16T12:35:59.373Z,5.87
2023-03-16T12:41:36.631Z,5.89
2023-03-16T12:46:53.525Z,5.87
2023-03-16T12:52:10.114Z,5.85
2023-03-16T12:57:16.185Z,5.84
2023-03-16T13:02:30.540Z,5.82
2023-03-16T13:07:33.709Z,5.84
2023-03-16T13:12:37.998Z,5.86
2023-03-16T13:17:41.017Z,5.91
2023-03-16T13:22:51.372Z,5.95
2023-03-16T13:27:56.025Z,6.00
2023-03-16T13:33:18.041Z,6.03
2023-03-16T13:38:22.840Z,6.10
2023-03-16T13:43:31.946Z,6.09
2023-03-16T13:48:37.515Z,6.06
2023-03-16T13:53:40.957Z,6.07
2023-03-16T13:58:47.068Z,6.08
2023-03-16T14:03:50.873Z,6.07
2023-03-16T14:09:01.455Z,6.06
2023-03-16T14:14:17.182Z,6.08
2023-03-16T14:19:32.440Z,6.09
2023-03-16T14:24:38.689Z,6.08
2023-03-16T14:29:42.613Z,6.08
2023-03-16T14:34:50.171Z,6.10
2023-03-16T14:40:02.659Z,6.08
2023-03-16T14:45:13.526Z,6.08
2023-03-16T14:50:20.461Z,6.06
2023-03-16T14:55:24.088Z,5.99
2023-03-16T15:00:26.851Z,5.95
2023-03-16T15:05:34.024Z,5.95
2023-03-16T15:10:38.306Z,5.96
2023-03-16T15:15:42.749Z,5.95
2023-03-16T15:20:45.655Z,5.95
2023-03-16T15:25:49.744Z,5.95
2023-03-16T15:30:54.304Z,5.94
2023-03-16T15:35:58.999Z,5.91
2023-03-16T15:41:02.419Z,5.94
2023-03-16T15:46:06.485Z,5.91
2023-03-16T15:51:23.233Z,5.86
2023-03-16T15:56:30.349Z,5.85
2023-03-16T16:01:45.212Z,5.86
2023-03-16T16:06:48.366Z,5.86
2023-03-16T16:11:51.582Z,5.84
2023-03-16T16:16:54.579Z,5.83
2023-03-16T16:21:57.443Z,5.79
2023-03-16T16:27:00.810Z,5.75
2023-03-16T16:32:03.933Z,5.73
2023-03-16T16:37:09.385Z,5.70
2023-03-16T16:42:17.326Z,5.65
2023-03-16T16:47:23.755Z,5.60
2023-03-16T16:52:26.778Z,5.55
2023-03-16T16:57:30.511Z,5.51
2023-03-16T17:02:42.259Z,5.43
2023-03-16T17:07:45.659Z,5.30
2023-03-16T17:12:50.148Z,5.20
2023-03-16T17:17:57.562Z,5.08
2023-03-16T17:23:00.387Z,4.99
2023-03-16T17:28:03.671Z,4.90
2023-03-16T17:33:14.190Z,4.81
2023-03-16T17:38:17.513Z,4.74
2023-03-16T17:43:22.330Z,4.66
2023-03-16T17:48:25.518Z,4.63
2023-03-16T17:53:28.311Z,4.61
2023-03-16T17:58:31.648Z,4.60
2023-03-16T18:03:35.018Z,4.56
2023-03-16T18:08:37.815Z,4.52
2023-03-16T18:13:41.174Z,4.48
2023-03-16T18:18:44.048Z,4.44
2023-03-16T18:23:46.895Z,4.35
2023-03-16T18:28:50.596Z,4.34
2023-03-16T18:33:58.293Z,4.35
2023-03-16T18:39:04.186Z,4.31
2023-03-16T18:44:21.935Z,4.30
2023-03-16T18:49:36.026Z,4.30
2023-03-16T18:54:39.189Z,4.33
2023-03-16T18:59:42.024Z,4.32
2023-03-16T19:04:45.720Z,4.35
2023-03-16T19:09:48.435Z,4.36
2023-03-16T19:14:51.206Z,4.40
2023-03-16T19:19:53.912Z,4.44
2023-03-16T19:24:56.679Z,4.41
2023-03-16T19:29:59.409Z,4.40
2023-03-16T19:35:02.521Z,4.32
2023-03-16T19:40:06.335Z,4.21
2023-03-16T19:45:22.115Z,4.13
2023-03-16T19:50:26.907Z,4.02
2023-03-16T19:55:32.285Z,3.99
2023-03-16T20:00:35.230Z,3.92
2023-03-16T20:05:39.873Z,3.86
2023-03-16T20:10:42.637Z,3.78
2023-03-16T20:15:46.609Z,3.64
2023-03-16T20:20:49.908Z,3.49
2023-03-16T20:26:01.377Z,3.34
2023-03-16T20:31:08.242Z,3.24
2023-03-16T20:36:12.455Z,3.13
2023-03-16T20:41:20.227Z,3.15
2023-03-16T20:46:31.626Z,3.20
2023-03-16T20:51:34.552Z,3.13
2023-03-16T20:56:37.755Z,3.09
2023-03-16T21:01:44.171Z,3.02
2023-03-16T21:06:50.832Z,2.96
2023-03-16T21:11:53.560Z,2.96
2023-03-16T21:16:57.063Z,2.91
2023-03-16T21:21:59.825Z,2.83
2023-03-16T21:27:03.062Z,2.76
2023-03-16T21:32:20.327Z,2.65
2023-03-16T21:37:28.417Z,2.47
2023-03-16T21:42:31.136Z,2.40
2023-03-16T21:47:34.102Z,2.35
2023-03-16T21:52:36.874Z,2.34
2023-03-16T21:57:39.563Z,2.32
2023-03-16T22:02:42.470Z,2.35
2023-03-16T22:07:45.738Z,2.50
2023-03-16T22:12:48.455Z,2.67
2023-03-16T22:17:52.834Z,2.68
2023-03-16T22:22:55.869Z,2.66
2023-03-16T22:27:59.069Z,2.57
2023-03-16T22:33:01.878Z,2.46
2023-03-16T22:38:06.910Z,2.36
2023-03-16T22:43:18.623Z,2.20
2023-03-16T22:48:23.363Z,2.03
2023-03-16T22:53:39.565Z,1.92
2023-03-16T22:58:54.359Z,1.85
2023-03-16T23:03:57.379Z,1.84
2023-03-16T23:09:00.130Z,1.81
2023-03-16T23:14:03.165Z,1.81
2023-03-16T23:19:24.555Z,1.75
2023-03-16T23:24:27.813Z,1.65
2023-03-16T23:29:30.975Z,1.57
2023-03-16T23:34:33.689Z,1.53
2023-03-16T23:39:36.572Z,1.52
2023-03-16T23:44:39.297Z,1.45
2023-03-16T23:49:42.804Z,1.39
2023-03-16T23:54:45.595Z,1.44
2023-03-16T23:59:48.336Z,1.55
